Time;durP1;ratioP1;P1;durP2;ratioP2;P2;SDS_P1;SDS_P2;PMS_P1;PMS_P2;Temp;Humidity;BMP_temperature;BMP_pressure;BME280_temperature;BME280_humidity;BME280_pressure;Samples;Min_cycle;Max_cycle;Signal;HPM_P1;HPM_P2
2022/02/13 00:00:47;;;;;;;0.70;0.70;;;;;;;3.04;87.44;101216.34;4925725;29;20043;-75
2022/02/13 00:03:13;;;;;;;1.45;0.63;;;;;;;3.00;87.70;101215.31;4924720;29;20044;-73
2022/02/13 00:05:39;;;;;;;1.15;0.77;;;;;;;3.05;87.59;101210.72;4926273;29;20039;-74
2022/02/13 00:08:05;;;;;;;1.23;0.88;;;;;;;2.96;87.82;101204.47;4929126;29;20044;-75
2022/02/13 00:10:31;;;;;;;0.98;0.60;;;;;;;2.97;88.00;101203.38;4915815;29;20131;-74
2022/02/13 00:12:57;;;;;;;1.02;0.77;;;;;;;2.95;88.09;101192.25;4925978;29;20088;-74
2022/02/13 00:15:22;;;;;;;0.52;0.47;;;;;;;2.87;88.15;101174.28;4926498;29;20930;-75
2022/02/13 00:17:48;;;;;;;0.68;0.63;;;;;;;2.87;88.84;101186.78;4935875;29;20134;-74
2022/02/13 00:20:13;;;;;;;2.08;1.08;;;;;;;2.93;88.81;101175.78;4916119;29;20421;-75
2022/02/13 00:22:39;;;;;;;0.60;0.57;;;;;;;2.90;88.55;101173.72;4924530;29;20047;-75
2022/02/13 00:25:04;;;;;;;1.75;0.65;;;;;;;2.95;88.54;101170.19;4925307;29;20406;-74
2022/02/13 00:27:30;;;;;;;0.63;0.50;;;;;;;2.96;88.40;101151.28;4922994;29;20048;-75
2022/02/13 00:29:55;;;;;;;0.55;0.55;;;;;;;2.95;88.25;101159.53;4940031;29;20050;-72
2022/02/13 00:32:23;;;;;;;1.48;0.70;;;;;;;2.97;88.36;101160.84;4925699;29;20393;-74
2022/02/13 00:34:49;;;;;;;2.30;1.13;;;;;;;2.98;88.26;101157.09;4937594;29;20319;-75
2022/02/13 00:37:15;;;;;;;7.40;0.90;;;;;;;2.90;88.59;101155.13;4935973;29;20505;-74
2022/02/13 00:39:41;;;;;;;1.05;0.90;;;;;;;2.93;88.76;101162.50;4923884;29;20114;-74
2022/02/13 00:42:08;;;;;;;1.38;0.55;;;;;;;2.91;88.77;101155.88;4935539;28;20482;-75
2022/02/13 00:44:33;;;;;;;3.05;0.60;;;;;;;2.88;88.83;101162.59;4930523;29;20095;-73
2022/02/13 00:46:59;;;;;;;1.67;0.60;;;;;;;2.86;89.11;101167.41;4923173;29;20104;-71
2022/02/13 00:49:24;;;;;;;2.25;0.85;;;;;;;2.88;88.97;101172.44;4934634;29;20091;-75
2022/02/13 00:51:50;;;;;;;0.60;0.50;;;;;;;2.83;88.80;101167.97;4924784;29;20052;-74
2022/02/13 00:54:15;;;;;;;2.60;1.05;;;;;;;2.79;89.39;101164.31;4924267;29;20045;-74
2022/02/13 00:56:41;;;;;;;1.65;1.00;;;;;;;2.76;89.78;101156.94;4923476;29;20039;-75
2022/02/13 00:59:06;;;;;;;0.80;0.80;;;;;;;2.77;89.80;101155.06;4925309;29;20035;-73
2022/02/13 01:01:31;;;;;;;2.60;1.02;;;;;;;2.80;89.53;101160.59;4930496;29;20035;-73
2022/02/13 01:03:57;;;;;;;1.75;0.70;;;;;;;2.81;89.72;101146.22;4922745;29;20394;-73
2022/02/13 01:06:24;;;;;;;1.13;0.68;;;;;;;2.82;89.88;101139.81;4924583;29;20055;-73
2022/02/13 01:08:50;;;;;;;2.80;1.20;;;;;;;2.74;89.75;101138.63;4933228;29;20048;-75
2022/02/13 01:11:15;;;;;;;2.67;1.02;;;;;;;2.83;89.54;101136.06;4921911;28;20050;-75
2022/02/13 01:13:43;;;;;;;1.27;0.90;;;;;;;2.77;89.45;101129.25;4923485;29;20039;-73
2022/02/13 01:16:09;;;;;;;1.13;0.80;;;;;;;2.78;89.28;101120.22;4924484;29;20039;-73
2022/02/13 01:18:35;;;;;;;1.23;0.90;;;;;;;2.72;89.77;101110.72;4921453;29;20103;-73
2022/02/13 01:21:00;;;;;;;1.33;0.80;;;;;;;2.72;89.82;101116.84;4926771;29;20476;-73
2022/02/13 01:23:25;;;;;;;1.98;1.17;;;;;;;2.64;90.39;101114.84;4923104;29;20512;-73
2022/02/13 01:25:51;;;;;;;0.77;0.60;;;;;;;2.68;90.17;101115.06;4925995;29;20115;-73
2022/02/13 01:28:16;;;;;;;2.63;1.15;;;;;;;2.65;90.51;101120.97;4923660;28;20071;-74
2022/02/13 01:30:42;;;;;;;6.13;1.60;;;;;;;2.65;90.59;101121.72;4932688;29;21243;-73
2022/02/13 01:33:07;;;;;;;2.85;0.95;;;;;;;2.64;90.67;101120.16;4926475;29;20031;-76
2022/02/13 01:35:32;;;;;;;3.05;0.85;;;;;;;2.65;90.50;101110.34;4914942;29;20036;-74
2022/02/13 01:37:58;;;;;;;2.42;1.40;;;;;;;2.64;90.38;101103.41;4925306;29;20123;-74
2022/02/13 01:40:24;;;;;;;1.52;0.65;;;;;;;2.64;90.79;101111.41;4926706;29;20118;-75
2022/02/13 01:42:50;;;;;;;1.95;1.25;;;;;;;2.63;90.77;101110.59;4934493;29;20652;-73
2022/02/13 01:45:15;;;;;;;3.03;1.13;;;;;;;2.62;90.50;101097.59;4926017;29;20059;-76
2022/02/13 01:47:42;;;;;;;1.42;1.02;;;;;;;2.65;90.93;101102.34;4924480;29;20102;-75
2022/02/13 01:50:09;;;;;;;1.30;1.20;;;;;;;2.68;90.72;101099.91;4925494;29;20569;-74
2022/02/13 01:52:35;;;;;;;3.88;0.75;;;;;;;2.61;90.97;101101.34;4923187;29;20062;-76
2022/02/13 01:55:02;;;;;;;1.02;0.75;;;;;;;2.60;90.64;101097.09;4914953;29;20504;-74
2022/02/13 01:57:28;;;;;;;0.93;0.80;;;;;;;2.58;90.68;101085.97;4926463;29;20040;-74
2022/02/13 01:59:55;;;;;;;1.13;0.80;;;;;;;2.62;90.60;101100.25;4925556;29;20039;-73
2022/02/13 02:02:21;;;;;;;1.67;1.15;;;;;;;2.59;90.66;101083.03;4906860;29;20043;-74
2022/02/13 02:04:47;;;;;;;1.10;0.88;;;;;;;2.58;90.92;101075.34;4911012;29;20043;-74
2022/02/13 02:07:13;;;;;;;1.52;0.80;;;;;;;2.62;90.85;101074.47;4923509;29;20050;-73
2022/02/13 02:09:45;;;;;;;1.83;0.80;;;;;;;2.55;90.75;101074.06;4924634;29;20038;-74
2022/02/13 02:12:10;;;;;;;1.00;0.90;;;;;;;2.52;90.77;101076.50;4919143;29;20073;-74
2022/02/13 02:14:36;;;;;;;1.88;1.23;;;;;;;2.56;91.05;101093.44;4923238;29;20134;-74
2022/02/13 02:17:01;;;;;;;2.45;1.35;;;;;;;2.52;91.04;101089.78;4920525;29;20058;-75
2022/02/13 02:19:30;;;;;;;5.80;1.75;;;;;;;2.53;91.50;101084.19;4923270;29;20031;-74
2022/02/13 02:21:56;;;;;;;2.28;1.23;;;;;;;2.50;91.44;101084.78;4909886;29;20054;-74
2022/02/13 02:24:21;;;;;;;0.80;0.75;;;;;;;2.49;91.44;101064.59;4921485;29;20035;-74
2022/02/13 02:26:47;;;;;;;2.35;0.80;;;;;;;2.50;91.23;101058.19;4921296;29;20511;-74
2022/02/13 02:29:12;;;;;;;2.15;1.17;;;;;;;2.53;91.34;101048.84;4924918;29;20066;-74
2022/02/13 02:31:38;;;;;;;1.27;0.88;;;;;;;2.53;91.11;101039.03;4924929;29;20076;-75
2022/02/13 02:34:03;;;;;;;1.92;1.17;;;;;;;2.49;91.38;101053.97;4924276;29;20503;-74
2022/02/13 02:36:29;;;;;;;1.77;0.93;;;;;;;2.47;91.48;101055.34;4908097;29;21190;-74
2022/02/13 02:38:54;;;;;;;1.40;1.10;;;;;;;2.46;91.27;101046.56;4918430;29;20032;-74
2022/02/13 02:41:20;;;;;;;2.25;0.93;;;;;;;2.51;91.24;101043.03;4918806;29;20035;-75
2022/02/13 02:43:46;;;;;;;2.58;1.23;;;;;;;2.55;91.19;101028.91;4933458;29;20039;-75
2022/02/13 02:46:13;;;;;;;1.27;0.80;;;;;;;2.47;91.17;101024.25;4918300;29;20457;-74
2022/02/13 02:48:38;;;;;;;3.45;1.45;;;;;;;2.47;91.08;101020.78;4922469;29;20028;-74
2022/02/13 02:51:05;;;;;;;4.40;1.20;;;;;;;2.44;91.46;101019.50;4921151;29;20520;-75
2022/02/13 02:53:33;;;;;;;1.20;0.70;;;;;;;2.44;91.59;101008.88;4914000;29;20103;-75
2022/02/13 02:55:59;;;;;;;2.42;0.80;;;;;;;2.42;91.31;100994.31;4919334;29;20498;-75
2022/02/13 02:58:25;;;;;;;2.03;0.80;;;;;;;2.42;91.86;100999.63;4922899;29;20067;-75
2022/02/13 03:00:51;;;;;;;1.20;0.73;;;;;;;2.44;91.50;101000.91;4923237;29;20397;-75
2022/02/13 03:03:18;;;;;;;1.20;1.08;;;;;;;2.41;91.63;100984.75;4922848;29;20033;-75
2022/02/13 03:05:44;;;;;;;2.45;0.90;;;;;;;2.40;92.03;100983.19;4926648;29;20039;-75
2022/02/13 03:08:09;;;;;;;1.52;1.10;;;;;;;2.44;91.82;100981.53;4937512;29;20536;-73
2022/02/13 03:10:35;;;;;;;6.18;1.20;;;;;;;2.41;91.92;100971.47;4929865;29;20090;-75
2022/02/13 03:13:00;;;;;;;1.35;0.85;;;;;;;2.35;92.06;100969.97;4939977;29;20123;-75
2022/02/13 03:15:26;;;;;;;7.68;1.35;;;;;;;2.36;92.02;100964.38;4914428;29;20035;-75
2022/02/13 03:17:51;;;;;;;1.40;0.60;;;;;;;2.35;91.92;100957.50;4918978;29;20449;-75
2022/02/13 03:20:16;;;;;;;1.58;0.95;;;;;;;2.35;91.94;100967.31;4915617;29;20079;-75
2022/02/13 03:22:42;;;;;;;1.75;0.73;;;;;;;2.36;91.84;100959.06;4918783;29;20107;-74
2022/02/13 03:25:08;;;;;;;1.20;0.70;;;;;;;2.33;92.03;100962.31;4923770;29;20029;-74
2022/02/13 03:27:34;;;;;;;1.77;1.02;;;;;;;2.37;91.68;100951.88;4926155;29;20036;-75
2022/02/13 03:29:59;;;;;;;1.30;0.98;;;;;;;2.35;91.55;100946.06;4915876;29;20445;-75
2022/02/13 03:32:24;;;;;;;1.83;0.98;;;;;;;2.33;91.79;100938.41;4912577;29;20024;-75
2022/02/13 03:34:50;;;;;;;2.35;1.00;;;;;;;2.37;91.93;100928.75;4914811;29;20493;-75
2022/02/13 03:37:15;;;;;;;1.45;0.85;;;;;;;2.38;91.99;100929.56;4923320;29;20091;-75
2022/02/13 03:39:41;;;;;;;1.20;0.77;;;;;;;2.32;91.44;100925.41;4908161;29;20516;-75
2022/02/13 03:42:07;;;;;;;1.67;0.90;;;;;;;2.28;92.09;100914.59;4924384;29;20039;-74
2022/02/13 03:44:36;;;;;;;1.35;1.20;;;;;;;2.27;91.92;100913.00;4910451;28;20042;-74
2022/02/13 03:47:03;;;;;;;0.70;0.70;;;;;;;2.28;92.02;100911.94;4926190;29;20035;-75
2022/02/13 03:49:29;;;;;;;1.17;1.00;;;;;;;2.29;92.03;100920.66;4912079;29;20034;-74
2022/02/13 03:51:55;;;;;;;2.58;0.70;;;;;;;2.22;91.97;100914.97;4913518;28;20103;-75
2022/02/13 03:54:20;;;;;;;1.33;1.13;;;;;;;2.21;92.24;100910.72;4925469;29;20128;-74
2022/02/13 03:56:47;;;;;;;3.45;1.25;;;;;;;2.22;92.32;100910.44;4925652;29;20039;-75
2022/02/13 03:59:13;;;;;;;1.63;0.93;;;;;;;2.25;92.05;100906.41;4923395;29;20509;-74
2022/02/13 04:01:39;;;;;;;1.30;0.73;;;;;;;2.23;92.16;100901.38;4926345;29;20131;-75
2022/02/13 04:04:04;;;;;;;1.75;0.98;;;;;;;2.21;92.13;100910.72;4927022;29;20126;-75
2022/02/13 04:06:30;;;;;;;2.63;1.02;;;;;;;2.20;92.48;100914.47;4925733;29;20035;-74
2022/02/13 04:08:55;;;;;;;2.15;1.42;;;;;;;2.16;92.18;100903.63;4925918;29;20058;-73
2022/02/13 04:11:21;;;;;;;3.25;1.25;;;;;;;2.18;92.72;100904.13;4910437;28;20032;-75
2022/02/13 04:13:46;;;;;;;2.38;1.13;;;;;;;2.14;92.48;100897.03;4926064;29;20036;-75
2022/02/13 04:16:11;;;;;;;7.38;0.82;;;;;;;2.15;92.85;100894.09;4918901;29;20124;-74
2022/02/13 04:18:37;;;;;;;2.28;0.82;;;;;;;2.15;92.64;100907.38;4924281;28;20448;-74
2022/02/13 04:21:03;;;;;;;2.20;1.35;;;;;;;2.17;92.53;100894.59;4926301;29;20036;-74
2022/02/13 04:23:29;;;;;;;4.82;1.20;;;;;;;2.22;92.61;100909.66;4939497;29;20063;-75
2022/02/13 04:25:55;;;;;;;2.63;0.85;;;;;;;2.23;92.00;100897.94;4928977;29;20031;-75
2022/02/13 04:28:21;;;;;;;1.15;0.60;;;;;;;2.19;92.02;100894.31;4919201;29;20032;-74
2022/02/13 04:30:47;;;;;;;2.25;1.25;;;;;;;2.15;92.30;100898.63;4907129;29;20375;-74
2022/02/13 04:33:12;;;;;;;2.75;1.23;;;;;;;2.12;92.53;100902.66;4923323;29;20055;-74
2022/02/13 04:35:37;;;;;;;2.05;0.75;;;;;;;2.16;92.30;100906.28;4921069;29;20042;-76
2022/02/13 04:38:03;;;;;;;2.33;1.23;;;;;;;2.20;91.88;100901.19;4926554;29;20123;-74
2022/02/13 04:40:29;;;;;;;3.22;1.08;;;;;;;2.20;91.86;100898.53;4927364;29;20436;-74
2022/02/13 04:42:54;;;;;;;1.10;0.63;;;;;;;2.19;91.92;100900.38;4924051;29;20035;-76
2022/02/13 04:45:40;;;;;;;1.20;0.75;;;;;;;2.19;91.97;100886.34;4926465;29;20039;-76
2022/02/13 04:48:06;;;;;;;3.63;1.30;;;;;;;2.18;91.50;100880.25;4925292;29;20176;-74
2022/02/13 04:50:32;;;;;;;6.13;1.27;;;;;;;2.13;91.60;100880.31;4906880;29;20130;-74
2022/02/13 04:52:58;;;;;;;1.30;0.90;;;;;;;2.13;91.71;100882.97;4921010;29;20036;-74
2022/02/13 04:55:23;;;;;;;1.02;0.90;;;;;;;2.15;91.90;100877.38;4916099;29;20047;-75
2022/02/13 04:57:50;;;;;;;4.15;1.38;;;;;;;2.16;91.61;100879.75;4924113;29;20047;-74
2022/02/13 05:00:16;;;;;;;1.17;0.80;;;;;;;2.15;91.77;100867.53;4932734;29;20113;-74
2022/02/13 05:02:43;;;;;;;1.15;0.70;;;;;;;2.13;91.41;100869.69;4913200;29;20048;-74
2022/02/13 05:05:09;;;;;;;2.67;1.23;;;;;;;2.15;91.45;100870.19;4912297;29;20051;-73
2022/02/13 05:07:35;;;;;;;3.92;0.85;;;;;;;2.12;91.12;100865.47;4924847;29;20117;-76
2022/02/13 05:10:02;;;;;;;1.00;0.80;;;;;;;2.10;91.62;100858.88;4939602;29;20046;-73
2022/02/13 05:12:27;;;;;;;1.38;0.68;;;;;;;2.10;91.63;100853.56;4923009;29;20545;-75
2022/02/13 05:14:53;;;;;;;1.25;0.95;;;;;;;2.08;91.24;100850.41;4921870;29;20054;-74
2022/02/13 05:17:21;;;;;;;2.90;1.13;;;;;;;2.04;91.67;100847.56;4924098;29;20040;-74
2022/02/13 05:19:46;;;;;;;1.23;1.02;;;;;;;2.08;91.33;100847.75;4918523;29;20052;-73
2022/02/13 05:22:12;;;;;;;2.08;1.23;;;;;;;2.06;91.53;100844.59;4919598;29;20039;-74
2022/02/13 05:24:37;;;;;;;2.50;1.13;;;;;;;2.00;91.48;100849.22;4922022;29;20055;-73
2022/02/13 05:27:04;;;;;;;1.80;0.95;;;;;;;2.01;91.55;100845.50;4906989;29;20051;-74
2022/02/13 05:29:31;;;;;;;2.55;1.52;;;;;;;1.99;91.44;100831.72;4917886;29;20055;-73
2022/02/13 05:31:56;;;;;;;2.28;1.50;;;;;;;1.97;91.57;100839.19;4926275;29;20028;-75
2022/02/13 05:34:21;;;;;;;6.45;1.38;;;;;;;1.98;91.46;100834.66;4923845;29;20061;-76
2022/02/13 05:36:47;;;;;;;1.90;1.30;;;;;;;1.97;91.76;100830.44;4907968;29;20107;-73
2022/02/13 05:39:12;;;;;;;2.00;1.20;;;;;;;1.93;91.52;100829.44;4911793;29;20040;-75
2022/02/13 05:41:38;;;;;;;5.05;2.03;;;;;;;1.98;91.01;100826.69;4922607;29;20032;-74
2022/02/13 05:44:04;;;;;;;1.10;1.00;;;;;;;2.03;90.57;100834.56;4907423;29;20040;-74
2022/02/13 05:46:32;;;;;;;1.73;1.15;;;;;;;2.03;90.62;100823.97;4921704;29;21156;-75
2022/02/13 05:48:58;;;;;;;1.35;1.25;;;;;;;2.04;90.50;100831.63;4939526;28;20043;-74
2022/02/13 05:51:25;;;;;;;2.88;1.50;;;;;;;2.04;90.51;100830.81;4924841;29;20043;-75
2022/02/13 05:53:51;;;;;;;2.70;0.93;;;;;;;2.08;90.22;100837.13;4924343;29;20027;-74
2022/02/13 05:56:16;;;;;;;2.95;1.52;;;;;;;2.14;89.56;100833.31;4940019;29;20042;-74
2022/02/13 05:58:42;;;;;;;2.25;0.95;;;;;;;2.11;89.32;100828.59;4925853;29;20054;-74
2022/02/13 06:01:09;;;;;;;3.75;1.20;;;;;;;2.11;88.91;100826.69;4914875;29;20035;-74
2022/02/13 06:03:35;;;;;;;2.13;1.02;;;;;;;2.18;88.30;100826.31;4924806;29;20055;-74
2022/02/13 06:06:01;;;;;;;1.65;0.80;;;;;;;2.19;87.96;100825.25;4925562;29;20032;-74
2022/02/13 06:08:28;;;;;;;1.55;1.27;;;;;;;2.20;87.55;100819.66;4919052;29;20576;-76
2022/02/13 06:10:53;;;;;;;2.70;1.35;;;;;;;2.20;87.95;100827.63;4918761;29;20040;-75
2022/02/13 06:13:19;;;;;;;2.90;1.58;;;;;;;2.22;87.86;100829.97;4925648;29;20473;-74
2022/02/13 06:15:44;;;;;;;1.65;0.90;;;;;;;2.20;87.33;100816.19;4923973;29;20048;-75
2022/02/13 06:18:10;;;;;;;2.80;1.55;;;;;;;2.19;87.58;100804.00;4904284;29;20082;-75
2022/02/13 06:20:36;;;;;;;1.75;0.98;;;;;;;2.16;87.68;100800.06;4920376;29;20445;-73
2022/02/13 06:23:01;;;;;;;3.38;1.08;;;;;;;2.15;87.39;100805.69;4921883;29;20032;-74
2022/02/13 06:25:27;;;;;;;2.05;1.20;;;;;;;2.19;87.64;100804.78;4921906;29;20453;-74
2022/02/13 06:27:52;;;;;;;2.42;1.50;;;;;;;2.17;87.18;100800.88;4912282;29;20043;-74
2022/02/13 06:30:17;;;;;;;1.90;1.25;;;;;;;2.22;87.46;100808.72;4918715;29;20055;-74
2022/02/13 06:32:43;;;;;;;1.25;1.05;;;;;;;2.23;87.10;100803.09;4923465;29;20396;-74
2022/02/13 06:35:08;;;;;;;4.15;1.58;;;;;;;2.22;87.24;100806.84;4925744;29;20052;-74
2022/02/13 06:37:34;;;;;;;1.88;1.00;;;;;;;2.27;87.13;100808.59;4926242;29;20405;-73
2022/02/13 06:39:59;;;;;;;1.45;0.95;;;;;;;2.27;86.92;100795.31;4926563;29;20039;-74
2022/02/13 06:42:25;;;;;;;2.22;1.23;;;;;;;2.23;87.23;100805.75;4925908;29;20082;-76
2022/02/13 06:44:51;;;;;;;3.30;1.50;;;;;;;2.25;86.92;100800.16;4917347;29;20047;-74
2022/02/13 06:47:17;;;;;;;2.03;1.17;;;;;;;2.30;86.75;100808.03;4928243;29;20087;-74
2022/02/13 06:49:42;;;;;;;1.30;1.20;;;;;;;2.29;86.53;100811.75;4927191;29;20035;-77
2022/02/13 06:52:08;;;;;;;1.55;1.33;;;;;;;2.31;86.12;100805.06;4929761;29;20042;-74
2022/02/13 06:54:33;;;;;;;2.60;1.80;;;;;;;2.30;86.27;100805.38;4920002;29;20074;-74
2022/02/13 06:56:59;;;;;;;1.10;1.00;;;;;;;2.30;86.41;100803.53;4923333;29;20040;-76
2022/02/13 06:59:24;;;;;;;0.65;0.65;;;;;;;2.33;86.32;100808.22;4921371;29;20115;-74
2022/02/13 07:01:50;;;;;;;1.27;1.15;;;;;;;2.39;85.70;100808.91;4926710;29;20067;-74
2022/02/13 07:04:16;;;;;;;1.10;0.85;;;;;;;2.41;85.61;100812.84;4920096;29;20070;-74
2022/02/13 07:06:41;;;;;;;1.63;1.45;;;;;;;2.44;85.54;100804.28;4926852;29;20042;-74
2022/02/13 07:09:07;;;;;;;2.80;1.33;;;;;;;2.48;85.09;100813.22;4927679;29;20047;-74
2022/02/13 07:11:33;;;;;;;1.23;0.80;;;;;;;2.42;85.47;100798.47;4926723;29;20040;-74
2022/02/13 07:13:58;;;;;;;1.08;0.70;;;;;;;2.47;85.12;100805.56;4931343;29;20028;-76
2022/02/13 07:16:24;;;;;;;2.13;1.20;;;;;;;2.45;85.60;100805.06;4928338;29;20421;-74
2022/02/13 07:18:49;;;;;;;2.30;1.10;;;;;;;2.44;85.72;100806.94;4919535;29;20036;-74
2022/02/13 07:21:15;;;;;;;2.30;1.13;;;;;;;2.48;85.30;100796.50;4938586;29;20560;-73
2022/02/13 07:23:41;;;;;;;1.10;0.70;;;;;;;2.42;85.15;100793.16;4931153;29;20040;-74
2022/02/13 07:26:06;;;;;;;2.63;1.33;;;;;;;2.39;85.93;100798.28;4921616;29;20505;-74
2022/02/13 07:31:16;;;;;;;0.68;0.68;;;;;;;2.51;85.99;100796.72;4928368;29;20036;-73
2022/02/13 07:33:41;;;;;;;1.95;1.00;;;;;;;2.46;86.05;100799.44;4919492;28;20580;-74
2022/02/13 07:36:06;;;;;;;1.83;0.82;;;;;;;2.51;85.55;100794.06;4927690;29;20067;-74
2022/02/13 07:38:32;;;;;;;1.05;0.88;;;;;;;2.50;85.66;100792.47;4926182;29;20121;-73
2022/02/13 07:40:57;;;;;;;2.42;1.10;;;;;;;2.55;85.94;100797.69;4913469;28;20059;-72
2022/02/13 07:43:23;;;;;;;2.55;1.23;;;;;;;2.48;85.54;100791.19;4914951;28;20067;-73
2022/02/13 07:45:48;;;;;;;1.13;1.00;;;;;;;2.52;85.68;100790.28;4923600;29;20047;-73
2022/02/13 07:48:14;;;;;;;2.47;1.13;;;;;;;2.57;85.53;100792.06;4913159;29;20095;-74
2022/02/13 07:50:40;;;;;;;1.60;0.73;;;;;;;2.64;85.33;100792.44;4929169;29;20508;-74
2022/02/13 07:53:05;;;;;;;1.25;1.00;;;;;;;2.69;85.00;100781.72;4923131;29;20416;-73
2022/02/13 07:55:32;;;;;;;1.88;0.90;;;;;;;2.67;85.35;100783.88;4928472;29;20039;-74
2022/02/13 07:57:58;;;;;;;3.28;0.95;;;;;;;2.61;85.26;100777.09;4932429;28;20063;-74
2022/02/13 08:00:24;;;;;;;1.05;0.82;;;;;;;2.61;85.00;100785.09;4931113;29;20040;-74
2022/02/13 08:02:49;;;;;;;2.05;1.08;;;;;;;2.59;85.04;100781.94;4942485;29;20035;-74
2022/02/13 08:05:15;;;;;;;1.30;0.90;;;;;;;2.69;85.15;100773.75;4942885;28;20043;-73
2022/02/13 08:07:47;;;;;;;1.80;0.98;;;;;;;2.77;84.50;100783.66;4942796;29;20039;-74
2022/02/13 08:10:14;;;;;;;2.78;1.17;;;;;;;2.73;84.23;100783.47;4953464;28;20066;-74
2022/02/13 08:12:39;;;;;;;1.55;1.00;;;;;;;2.76;84.34;100782.09;4942897;28;20097;-74
2022/02/13 08:15:06;;;;;;;0.75;0.52;;;;;;;2.70;83.84;100786.72;4941136;28;20039;-74
2022/02/13 08:17:31;;;;;;;6.38;1.27;;;;;;;2.76;84.12;100779.44;4923491;29;20039;-73
2022/02/13 08:19:57;;;;;;;3.40;1.58;;;;;;;2.85;84.21;100784.81;4925633;29;20039;-74
2022/02/13 08:22:23;;;;;;;4.15;1.92;;;;;;;2.94;83.51;100789.13;4938772;29;20093;-73
2022/02/13 08:24:48;;;;;;;1.13;0.98;;;;;;;2.95;83.59;100788.03;4917957;29;20049;-74
2022/02/13 08:27:13;;;;;;;2.08;1.17;;;;;;;3.06;83.45;100776.06;4934749;29;20035;-73
2022/02/13 08:29:39;;;;;;;4.78;1.58;;;;;;;3.13;83.07;100773.81;4924762;29;20687;-74
2022/02/13 08:32:04;;;;;;;3.33;1.27;;;;;;;3.19;82.87;100775.25;4926481;29;20023;-73
2022/02/13 08:34:30;;;;;;;2.25;1.05;;;;;;;3.29;82.51;100769.66;4923444;29;20039;-73
2022/02/13 08:36:55;;;;;;;2.60;1.27;;;;;;;3.42;81.74;100763.50;4917588;29;20110;-74
2022/02/13 08:39:21;;;;;;;2.60;1.17;;;;;;;3.49;81.29;100761.19;4921473;29;20035;-74
2022/02/13 08:41:46;;;;;;;0.77;0.68;;;;;;;3.64;80.73;100765.34;4919683;29;20043;-73
2022/02/13 08:44:12;;;;;;;4.30;1.83;;;;;;;3.72;80.11;100761.94;4922987;29;20111;-74
2022/02/13 08:46:37;;;;;;;2.90;0.93;;;;;;;3.79;79.86;100743.66;4921502;29;20679;-73
2022/02/13 08:49:03;;;;;;;3.08;1.00;;;;;;;3.88;78.78;100736.47;4918790;29;20044;-74
2022/02/13 08:51:29;;;;;;;0.93;0.70;;;;;;;4.08;79.11;100746.59;4920936;29;21189;-73
2022/02/13 08:53:55;;;;;;;2.47;1.40;;;;;;;4.24;78.20;100745.03;4920380;29;20047;-74
2022/02/13 08:56:21;;;;;;;1.90;1.23;;;;;;;4.38;77.79;100734.25;4922228;29;20569;-74
2022/02/13 08:58:46;;;;;;;1.58;1.00;;;;;;;4.42;77.16;100732.53;4923623;29;20038;-73
2022/02/13 09:01:12;;;;;;;1.20;0.90;;;;;;;4.66;76.42;100716.91;4915418;29;20058;-73
2022/02/13 09:03:37;;;;;;;2.05;1.35;;;;;;;4.65;75.07;100715.31;4918964;29;20099;-74
2022/02/13 09:06:05;;;;;;;2.47;1.27;;;;;;;4.71;74.22;100706.06;4920577;29;20083;-73
2022/02/13 09:08:30;;;;;;;3.05;1.00;;;;;;;4.78;72.97;100687.69;4922334;29;20535;-72
2022/02/13 09:10:56;;;;;;;1.85;1.08;;;;;;;4.92;72.21;100703.53;4921390;29;20175;-73
2022/02/13 09:13:22;;;;;;;1.83;1.45;;;;;;;4.91;71.97;100692.09;4919372;29;20031;-73
2022/02/13 09:15:47;;;;;;;3.40;1.60;;;;;;;5.03;71.86;100683.44;4923099;29;20496;-74
2022/02/13 09:18:13;;;;;;;1.38;1.10;;;;;;;5.08;71.55;100680.59;4920414;29;20043;-75
2022/02/13 09:20:44;;;;;;;2.70;1.05;;;;;;;5.04;71.29;100677.00;4917405;29;20031;-75
2022/02/13 09:23:12;;;;;;;0.88;0.85;;;;;;;5.18;70.83;100680.28;4925326;29;20040;-74
2022/02/13 09:25:39;;;;;;;1.55;1.20;;;;;;;5.13;70.70;100678.53;4922299;29;20036;-73
2022/02/13 09:28:05;;;;;;;1.13;1.00;;;;;;;5.28;71.08;100674.59;4918353;29;20051;-75
2022/02/13 09:30:30;;;;;;;2.80;1.30;;;;;;;5.37;69.80;100673.47;4926049;29;20027;-75
2022/02/13 09:32:55;;;;;;;1.83;1.17;;;;;;;5.44;70.03;100671.09;4925596;29;20176;-75
2022/02/13 09:35:21;;;;;;;1.38;1.02;;;;;;;5.43;68.19;100668.75;4922609;29;20453;-74
2022/02/13 09:37:48;;;;;;;3.63;1.20;;;;;;;5.44;68.60;100679.09;4924117;29;20114;-73
2022/02/13 09:40:13;;;;;;;2.88;1.02;;;;;;;5.44;67.42;100657.72;4920138;29;20059;-74
2022/02/13 09:42:41;;;;;;;2.53;1.33;;;;;;;5.53;68.29;100659.59;4921805;29;20552;-73
2022/02/13 09:45:06;;;;;;;7.10;2.00;;;;;;;5.73;67.79;100648.19;4923281;29;20055;-72
2022/02/13 09:47:32;;;;;;;5.28;1.13;;;;;;;5.71;65.78;100656.50;4924659;29;20027;-75
2022/02/13 09:49:57;;;;;;;2.80;1.48;;;;;;;5.74;64.84;100649.75;4920614;29;20027;-74
2022/02/13 09:52:23;;;;;;;3.67;1.75;;;;;;;5.83;65.78;100647.81;4916576;29;20039;-73
2022/02/13 09:54:48;;;;;;;2.50;1.25;;;;;;;5.86;64.96;100634.63;4917937;29;20131;-73
2022/02/13 10:00:00;;;;;;;2.10;1.60;;;;;;;5.95;63.99;100640.72;4908745;29;20469;-74
2022/02/13 10:02:53;;;;;;;2.15;1.42;;;;;;;6.01;64.17;100649.31;4921031;29;20085;-73
2022/02/13 10:05:22;;;;;;;4.70;1.42;;;;;;;6.17;63.88;100647.66;4923219;29;20048;-74
2022/02/13 10:07:52;;;;;;;2.30;1.10;;;;;;;6.22;62.72;100647.44;4920320;29;20067;-73
2022/02/13 10:10:17;;;;;;;2.80;1.63;;;;;;;6.24;62.47;100647.91;4930595;28;20046;-73
2022/02/13 10:12:45;;;;;;;2.63;1.77;;;;;;;6.27;63.03;100666.75;4923036;29;20020;-74
2022/02/13 10:15:31;;;;;;;8.73;1.52;;;;;;;6.36;62.96;100661.34;4922515;29;20102;-73
2022/02/13 10:18:07;;;;;;;6.43;1.80;;;;;;;6.42;61.90;100657.38;4923883;29;20042;-73
2022/02/13 10:20:34;;;;;;;4.30;1.85;;;;;;;6.37;61.93;100654.88;4927661;29;20027;-74
2022/02/13 10:23:15;;;;;;;1.42;0.95;;;;;;;6.39;61.49;100649.97;4919068;29;20134;-74
2022/02/13 10:25:42;;;;;;;1.98;1.13;;;;;;;6.47;62.58;100641.13;4915617;29;20040;-74
2022/02/13 10:28:15;;;;;;;2.35;1.08;;;;;;;6.61;61.99;100644.31;4918369;29;20111;-74
2022/02/13 10:30:43;;;;;;;1.83;1.20;;;;;;;6.57;61.42;100651.41;4918671;29;20067;-75
2022/02/13 10:33:20;;;;;;;2.17;1.58;;;;;;;6.65;61.47;100641.75;4918267;29;20054;-74
2022/02/13 10:36:04;;;;;;;2.80;1.20;;;;;;;6.67;61.50;100647.56;4913386;29;20039;-74
2022/02/13 10:38:31;;;;;;;2.35;1.20;;;;;;;6.78;62.74;100640.69;4925698;29;20042;-74
2022/02/13 10:41:12;;;;;;;2.85;0.95;;;;;;;6.90;59.72;100641.53;4924435;29;20032;-74
2022/02/13 10:44:05;;;;;;;1.60;1.38;;;;;;;6.94;60.40;100641.63;4918270;29;20578;-74
2022/02/13 10:46:38;;;;;;;1.35;1.20;;;;;;;6.83;59.95;100646.59;4905877;29;20545;-74
2022/02/13 10:49:06;;;;;;;4.65;1.13;;;;;;;6.89;58.82;100639.19;4918025;29;20485;-74
2022/02/13 10:51:32;;;;;;;1.90;0.82;;;;;;;6.92;59.04;100623.22;4929793;28;20374;-73
2022/02/13 10:53:58;;;;;;;1.25;1.15;;;;;;;7.05;59.39;100630.19;4930771;29;20042;-73
2022/02/13 10:56:25;;;;;;;1.63;1.00;;;;;;;7.06;58.49;100630.97;4919995;28;20032;-73
2022/02/13 10:58:55;;;;;;;2.00;1.20;;;;;;;7.04;58.20;100625.16;4922388;29;20042;-73
2022/02/13 11:01:22;;;;;;;3.30;1.27;;;;;;;7.13;57.71;100612.44;4925418;28;20070;-72
2022/02/13 11:03:50;;;;;;;1.75;1.00;;;;;;;7.23;56.98;100620.84;4922821;29;20028;-73
2022/02/13 11:06:16;;;;;;;3.55;1.38;;;;;;;7.31;56.00;100613.81;4915184;29;20039;-74
2022/02/13 11:08:53;;;;;;;1.60;1.05;;;;;;;7.28;56.58;100611.78;4912003;29;20469;-73
2022/02/13 11:11:19;;;;;;;3.80;1.10;;;;;;;7.32;57.29;100608.13;4920656;29;20067;-74
2022/02/13 11:13:45;;;;;;;3.45;1.27;;;;;;;7.45;56.62;100600.09;4922717;29;20382;-74
2022/02/13 11:16:30;;;;;;;3.03;1.00;;;;;;;7.41;56.50;100599.22;4924765;29;20036;-74
2022/02/13 11:18:59;;;;;;;5.32;1.20;;;;;;;7.49;56.32;100601.00;4917630;29;20039;-73
2022/02/13 11:21:29;;;;;;;3.83;0.95;;;;;;;7.47;57.07;100589.84;4913287;29;20035;-72
2022/02/13 11:23:56;;;;;;;1.43;1.00;;;;;;;7.48;56.68;100583.34;4921693;29;20035;-74
2022/02/13 11:26:41;;;;;;;2.03;1.15;;;;;;;7.54;56.85;100588.16;4918454;28;20036;-73
2022/02/13 11:29:09;;;;;;;1.98;1.20;;;;;;;7.46;57.10;100578.34;4929556;29;20043;-73
2022/02/13 11:31:45;;;;;;;2.30;1.25;;;;;;;7.50;57.03;100581.91;4917640;29;20039;-73
2022/02/13 11:34:16;;;;;;;2.03;1.05;;;;;;;7.48;56.68;100578.00;4923218;29;20073;-74
2022/02/13 11:36:50;;;;;;;2.17;1.17;;;;;;;7.55;56.61;100578.22;4922751;29;20051;-73